METAR Data
IDs: Format: Raw Decoded Include TAF

Data at: 0112 UTC 25 Mar 2019

KVTI 250055Z AUTO 03008KT 10SM OVC007 06/06 A3007 RMK AO2 T00630063
KVTI 250035Z AUTO 03008KT 7SM OVC007 06/06 A3006 RMK AO2 T00630063
KVTI 250015Z AUTO 04009KT 5SM -DZ OVC007 06/06 A3006 RMK AO2 T00630063
KVTI 242355Z AUTO 03009KT 2 1/2SM BR OVC007 06/06 A3006 RMK AO2 T00630063 10077 20063
KVTI 242335Z AUTO 03008KT 4SM BR OVC007 06/06 A3005 RMK AO2 T00630063
KVTI 242315Z AUTO 03008KT 2 1/2SM BR OVC005 07/07 A3005 RMK AO2 T00700070
KVTI 242255Z AUTO 03008KT 2 1/2SM BR OVC005 07/07 A3005 RMK AO2 T00700070
KVTI 242235Z AUTO 04006KT 2 1/2SM -DZ OVC005 07/07 A3004 RMK AO2 T00730071
KVTI 242215Z AUTO 04007KT 3SM -DZ OVC005 08/08 A3004 RMK AO2 T00770076
KVTI 242155Z AUTO 04005KT 3SM -RA OVC005 08/08 A3003 RMK AO2 T00770076
KVTI 242135Z AUTO 04005KT 3SM BR OVC005 08/08 A3003 RMK AO2 T00770076
KVTI 242115Z AUTO 05007KT 3SM BR OVC005 08/08 A3004 RMK AO2 T00770076
KVTI 242055Z AUTO 03008KT 2 1/2SM BR OVC005 08/08 A3003 RMK AO2 T00770077
KVTI 242035Z AUTO 03009KT 2 1/2SM BR OVC005 08/08 A3002 RMK AO2 T00770077
KVTI 242015Z AUTO 04008KT 2SM BR OVC005 08/08 A3002 RMK AO2 T00770077
KVTI 241955Z AUTO 03010KT 1 3/4SM -DZ OVC003 08/08 A3001 RMK AO2 T00770077
KVTI 241935Z AUTO 02007KT 2SM -DZ OVC003 08/08 A3001 RMK AO2 T00770077
KVTI 241915Z AUTO 03006KT 2SM -DZ OVC003 08/08 A3001 RMK AO2 T00770077
KVTI 241855Z AUTO 04003KT 1 3/4SM DZ OVC003 08/08 A3001 RMK AO2 T00770077
KVTI 241835Z AUTO 06005KT 1 3/4SM RA OVC003 08/08 A3002 RMK AO2 T00770077
KVTI 241815Z AUTO 07005KT 1 3/4SM RA OVC003 08/08 A3003 RMK AO2 T00770077
KVTI 241755Z AUTO 09004KT 1 3/4SM -DZ OVC003 07/07 A3003 RMK AO2 60001 T00690069 10069 20035
KVTI 241735Z AUTO 08006KT 2SM BR OVC003 06/06 A3003 RMK AO2 T00630063
KVTI 241715Z AUTO 08007KT 2 1/2SM BR OVC003 06/06 A3003 RMK AO2 T00630063
KVTI 241655Z AUTO 08006KT 2 1/2SM BR OVC003 06/06 A3004 RMK AO2 T00610061
KVTI 241635Z AUTO 09007KT 2 1/2SM BR OVC003 06/06 A3004 RMK AO2 T00570057
KVTI 241615Z AUTO 08004KT 2SM -DZ OVC003 06/06 A3004 RMK AO2 T00560056
KVTI 241555Z AUTO 07005KT 1 1/2SM BR OVC003 05/05 A3004 RMK AO2 T00530053
KVTI 241535Z AUTO 07005KT 1SM -RA OVC003 05/05 A3004 RMK AO2 T00520052
KVTI 241515Z AUTO 07004KT 3/4SM -RA OVC003 05/05 A3004 RMK AO2 T00500050
KVTI 241455Z AUTO 09004KT 1SM -RA BKN002 OVC007 05/05 A3005 RMK AO2 60001 T00500050
KVTI 241435Z AUTO 08004KT 1 1/4SM -DZ SCT003 OVC007 05/05 A3005 RMK AO2 T00500050
KVTI 241415Z AUTO 11003KT 2SM -DZ OVC003 04/04 A3005 RMK AO2 T00420042
KVTI 241355Z AUTO 08004KT 1 3/4SM RA OVC003 04/04 A3004 RMK AO2 T00420042
KVTI 241335Z AUTO 07004KT 1 3/4SM -DZ BKN003 OVC012 04/04 A3005 RMK AO2 T00420042
KVTI 241315Z AUTO 10003KT 1 3/4SM -DZ BKN003 OVC012 04/04 A3005 RMK AO2 T00420041
KVTI 241255Z AUTO 07004KT 1 1/4SM RA BKN003 OVC012 04/04 A3005 RMK AO2 P0001 T00400040
KVTI 241235Z AUTO 10004KT 2SM RA BKN003 OVC010 04/04 A3005 RMK AO2 T00370036
KVTI 241215Z AUTO 10005KT 2SM -RA OVC008 04/03 A3005 RMK AO2 T00350033
KVTI 241155Z AUTO 08004KT 2 1/2SM DZ BKN008 OVC016 04/03 A3005 RMK AO2 60001 70001 T00350032 10076 20035
KVTI 241135Z AUTO 09004KT 4SM -RA BKN008 OVC018 04/03 A3005 RMK AO2 T00360033
KVTI 241115Z AUTO 09005KT 3SM RA BKN008 BKN013 OVC021 04/03 A3005 RMK AO2 T00360031
KVTI 241055Z AUTO 11004KT 3SM RA OVC011 04/03 A3005 RMK AO2 T00380029
KVTI 241035Z AUTO 11005KT 4SM +RA BKN009 OVC015 04/03 A3005 RMK AO2 T00400027
KVTI 241015Z AUTO 12005KT 5SM DZ BKN009 BKN015 BKN026 04/03 A3005 RMK AO2 T00420030
KVTI 240955Z AUTO 09007KT 7SM DZ SCT009 SCT013 BKN026 04/03 A3005 RMK AO2 T00420030
KVTI 240935Z AUTO 09006KT 7SM -RA SCT009 BKN030 OVC036 04/03 A3005 RMK AO2 T00420028
KVTI 240915Z AUTO 12004KT 7SM +DZ BKN013 OVC046 04/03 A3006 RMK AO2 T00420027
KVTI 240855Z AUTO 10004KT 10SM BKN048 04/03 A3007 RMK AO2 P0001 60001 T00430026
KVTI 240835Z AUTO 06005KT 10SM -RA SCT008 SCT015 SCT045 05/03 A3007 RMK AO2 P0001 T00500030
KVTI 240815Z AUTO 07003KT 7SM RA BKN008 BKN013 OVC042 05/03 A3008 RMK AO2 P0001 T00500025
KVTI 240755Z AUTO 13004KT 10SM -RA SCT008 BKN012 OVC055 05/02 A3010 RMK AO2 T00530024
KVTI 240735Z AUTO 14004KT 10SM -RA SCT047 SCT050 06/02 A3010 RMK AO2 T00560020
KVTI 240715Z AUTO 13006KT 10SM -DZ SCT060 06/02 A3009 RMK AO2 T00570017
KVTI 240655Z AUTO 14007KT 10SM SCT050 06/02 A3009 RMK AO2 T00570017
KVTI 240635Z AUTO 14006KT 10SM -DZ BKN050 06/02 A3010 RMK AO2 T00590016
KVTI 240615Z AUTO 15006KT 10SM SCT009 BKN050 BKN060 07/02 A3010 RMK AO2 T00690017
KVTI 240555Z AUTO 15008KT 10SM -RA SCT009 BKN060 08/02 A3010 RMK AO2 T00770021 10094 20076 401281033
KVTI 240535Z AUTO 15009KT 10SM -DZ SCT008 SCT060 08/02 A3010 RMK AO2 T00770020
KVTI 240515Z AUTO 15009KT 10SM -DZ CLR 08/01 A3010 RMK AO2 T00770008
KVTI 240455Z AUTO 15009KT 10SM CLR 08/01 A3011 RMK AO2 T00780005
KVTI 240435Z AUTO 14008KT 10SM CLR 09/01 A3012 RMK AO2 T00910014
KVTI 240415Z AUTO 15009KT 10SM CLR 09/01 A3012 RMK AO2 T00910009
KVTI 240355Z AUTO 15008KT 10SM CLR 09/01 A3012 RMK AO2 T00910008
KVTI 240335Z AUTO 14009KT 10SM CLR 09/01 A3012 RMK AO2 T00910009
KVTI 240315Z AUTO 14007KT 10SM CLR 09/01 A3013 RMK AO2 T00910008
KVTI 240255Z AUTO 13005KT 10SM CLR 09/01 A3013 RMK AO2 T00910010
KVTI 240235Z AUTO 13004KT 10SM CLR 09/01 A3013 RMK AO2 T00910010
KVTI 240215Z AUTO 11007KT 10SM CLR 09/01 A3012 RMK AO2 T00910006
KVTI 240155Z AUTO 13006KT 10SM CLR 09/01 A3013 RMK AO2 T00910010
KVTI 240135Z AUTO 14006KT 10SM CLR 09/01 A3013 RMK AO2 T00910005
KVTI 240115Z AUTO 12005KT 10SM CLR 09/01 A3013 RMK AO2 T00910006
KVTI 240055Z AUTO 12006KT 10SM CLR 09/00 A3013 RMK AO2 T00910003
KVTI 240035Z AUTO 12005KT 10SM CLR 09/00 A3014 RMK AO2 T00910000
KVTI 240015Z AUTO 13006KT 10SM CLR 09/00 A3014 RMK AO2 T00911002
KVTI 232355Z AUTO 13005KT 10SM CLR 10/00 A3014 RMK AO2 T00961001 10128 20096
KVTI 232335Z AUTO 13006KT 10SM CLR 11/00 A3014 RMK AO2 T01050000
KVTI 232315Z AUTO 15006KT 10SM CLR 11/00 A3015 RMK AO2 T01051003
KVTI 232255Z AUTO 13008KT 10SM CLR 12/00 A3014 RMK AO2 T01200003
KVTI 232235Z AUTO 13007KT 10SM CLR 12/01 A3015 RMK AO2 T01200005
KVTI 232215Z AUTO 14008KT 10SM CLR 12/00 A3016 RMK AO2 T01200001
KVTI 232155Z AUTO 14009KT 10SM CLR 12/00 A3017 RMK AO2 T01200003
KVTI 232135Z AUTO 16009G14KT 10SM CLR 13/00 A3017 RMK AO2 T01270001
KVTI 232115Z AUTO 14010KT 10SM CLR 12/00 A3018 RMK AO2 T01201001
KVTI 232055Z AUTO 14009KT 10SM CLR 12/00 A3018 RMK AO2 T01200000
KVTI 232035Z AUTO 15009KT 10SM CLR 12/00 A3019 RMK AO2 T01200000
KVTI 232015Z AUTO 17009KT 10SM CLR 12/00 A3018 RMK AO2 T01201001
KVTI 231955Z AUTO 17009G14KT 10SM CLR 12/M01 A3018 RMK AO2 T01201009
KVTI 231935Z AUTO 14009KT 10SM CLR 12/00 A3019 RMK AO2 T01201003
KVTI 231915Z AUTO 15008KT 10SM CLR 12/M01 A3020 RMK AO2 T01221011
KVTI 231855Z AUTO 16010G15KT 10SM CLR 12/M01 A3021 RMK AO2 T01201009
KVTI 231835Z AUTO 14009KT 10SM CLR 12/00 A3021 RMK AO2 T01201005
KVTI 231815Z AUTO 16011G15KT 10SM CLR 12/M01 A3022 RMK AO2 T01201007
KVTI 231755Z AUTO 15008G14KT 10SM CLR 12/00 A3022 RMK AO2 T01200002 10120 21031
KVTI 231735Z AUTO 18011KT 10SM CLR 12/00 A3023 RMK AO2 T01170000
KVTI 231715Z AUTO 16009KT 10SM CLR 10/00 A3023 RMK AO2 T01040004
KVTI 231655Z AUTO 15007KT 10SM CLR 10/00 A3024 RMK AO2 T00980004
KVTI 231635Z AUTO 17009KT 10SM CLR 09/00 A3024 RMK AO2 T00910004
KVTI 231615Z AUTO 16008KT 10SM CLR 09/01 A3024 RMK AO2 T00910012
KVTI 231555Z AUTO 19009KT 10SM CLR 08/00 A3025 RMK AO2 T00780003
KVTI 231535Z AUTO 17007KT 10SM CLR 06/00 A3026 RMK AO2 T00621002
KVTI 231515Z AUTO 16005KT 10SM CLR 05/M01 A3026 RMK AO2 T00501006
KVTI 231455Z AUTO 15007KT 10SM CLR 04/M01 A3025 RMK AO2 T00421010
KVTI 231435Z AUTO 17006KT 10SM CLR 04/M01 A3026 RMK AO2 T00421011
KVTI 231415Z AUTO 14006KT 10SM CLR 04/00 A3026 RMK AO2 T00351005
KVTI 231355Z AUTO 13007KT 10SM CLR 02/M01 A3026 RMK AO2 T00211011
KVTI 231335Z AUTO 13005KT 10SM CLR 01/M02 A3027 RMK AO2 T00071016
KVTI 231315Z AUTO 14004KT 10SM CLR 01/M01 A3028 RMK AO2 T00051014